Time;durP1;ratioP1;P1;durP2;ratioP2;P2;SDS_P1;SDS_P2;PMS_P1;PMS_P2;Temp;Humidity;BMP_temperature;BMP_pressure;BME280_temperature;BME280_humidity;BME280_pressure;Samples;Min_cycle;Max_cycle;Signal;HPM_P1;HPM_P2
2022/09/06 00:00:53;;;;;;;3.60;3.30;;;18.00;99.90;;;;;;5071370;28;20109;-80
2022/09/06 00:03:19;;;;;;;3.47;3.15;;;18.00;99.90;;;;;;5072496;28;20032;-79
2022/09/06 00:05:45;;;;;;;6.20;3.45;;;17.90;99.90;;;;;;5060179;28;20032;-82
2022/09/06 00:08:10;;;;;;;4.82;3.30;;;17.90;99.90;;;;;;5070825;28;20385;-82
2022/09/06 00:10:36;;;;;;;5.43;3.60;;;17.90;99.90;;;;;;5071906;28;20055;-74
2022/09/06 00:13:04;;;;;;;6.25;3.67;;;17.80;99.90;;;;;;5071990;28;20033;-85
2022/09/06 00:15:30;;;;;;;5.45;3.40;;;17.80;99.90;;;;;;5072621;28;20059;-83
2022/09/06 00:18:01;;;;;;;3.75;3.30;;;17.80;99.90;;;;;;5071313;28;20028;-83
2022/09/06 00:20:28;;;;;;;3.92;3.33;;;17.70;99.90;;;;;;5072474;28;20029;-82
2022/09/06 00:22:59;;;;;;;3.72;3.13;;;17.70;99.90;;;;;;5071568;28;20040;-82
2022/09/06 00:25:25;;;;;;;4.55;3.50;;;17.60;99.90;;;;;;5072183;28;20079;-83
2022/09/06 00:27:59;;;;;;;5.55;3.78;;;17.50;99.90;;;;;;5071294;28;20047;-86
2022/09/06 00:30:26;;;;;;;3.75;3.45;;;17.50;99.90;;;;;;5072332;28;20086;-86
2022/09/06 00:32:54;;;;;;;3.70;3.35;;;17.50;99.90;;;;;;5071494;28;20052;-85
2022/09/06 00:35:23;;;;;;;5.47;3.58;;;17.50;99.90;;;;;;5072933;28;20048;-85
2022/09/06 00:37:49;;;;;;;4.25;3.38;;;17.50;99.90;;;;;;5072062;28;20024;-85
2022/09/06 00:40:15;;;;;;;8.77;3.58;;;17.40;99.90;;;;;;5073394;28;20029;-84
2022/09/06 00:42:41;;;;;;;5.40;3.33;;;17.40;99.90;;;;;;5072002;28;20043;-83
2022/09/06 00:45:09;;;;;;;4.30;3.10;;;17.40;99.90;;;;;;5073083;28;20355;-87
2022/09/06 00:47:37;;;;;;;4.28;3.55;;;17.30;99.90;;;;;;5073432;27;20443;-86
2022/09/06 00:50:04;;;;;;;4.90;3.28;;;17.30;99.90;;;;;;5072185;28;20090;-84
2022/09/06 00:52:31;;;;;;;4.30;3.28;;;17.20;99.90;;;;;;5072376;28;20032;-85
2022/09/06 00:54:58;;;;;;;5.22;3.40;;;17.20;99.90;;;;;;5071930;28;20038;-85
2022/09/06 00:57:25;;;;;;;3.58;3.17;;;17.20;99.90;;;;;;5072355;28;20035;-85
2022/09/06 00:59:53;;;;;;;3.55;3.25;;;17.20;99.90;;;;;;5071657;28;20060;-84
2022/09/06 01:02:19;;;;;;;4.40;3.75;;;17.20;99.90;;;;;;5071606;28;20449;-84
2022/09/06 01:04:48;;;;;;;5.38;3.72;;;17.20;99.90;;;;;;5070176;28;20108;-86
2022/09/06 01:07:51;;;;;;;3.63;3.33;;;17.20;99.90;;;;;;5071551;28;20028;-87
2022/09/06 01:10:41;;;;;;;4.05;3.33;;;17.30;99.90;;;;;;5065891;28;20058;-85
2022/09/06 01:13:25;;;;;;;3.88;3.58;;;17.30;99.90;;;;;;5071786;28;20059;-83
2022/09/06 01:16:09;;;;;;;5.95;3.45;;;17.30;99.90;;;;;;5070848;28;20070;-85
2022/09/06 01:19:10;;;;;;;4.25;3.50;;;17.30;99.90;;;;;;5071524;28;20476;-84
2022/09/06 01:22:08;;;;;;;6.47;3.63;;;17.40;99.90;;;;;;5071694;28;20029;-83
2022/09/06 01:24:49;;;;;;;4.78;3.60;;;17.30;99.90;;;;;;5071571;28;20380;-83
2022/09/06 01:27:32;;;;;;;4.95;3.10;;;17.40;99.90;;;;;;5076135;28;20035;-81
2022/09/06 01:30:09;;;;;;;5.10;3.40;;;17.40;99.90;;;;;;5072783;28;20024;-87
2022/09/06 01:32:56;;;;;;;8.52;3.63;;;17.30;99.90;;;;;;5071179;28;20040;-87
2022/09/06 01:35:25;;;;;;;3.60;3.15;;;17.30;99.90;;;;;;5071104;28;20032;-84
2022/09/06 01:37:50;;;;;;;5.90;3.55;;;17.30;99.90;;;;;;5063049;28;20074;-85
2022/09/06 01:40:16;;;;;;;4.20;3.30;;;17.20;99.90;;;;;;5071454;28;20032;-85
2022/09/06 01:42:45;;;;;;;5.30;3.83;;;17.20;99.90;;;;;;5070337;28;20040;-74
2022/09/06 01:45:14;;;;;;;7.50;3.85;;;17.20;99.90;;;;;;5071400;28;20377;-85
2022/09/06 01:48:17;;;;;;;5.57;3.83;;;17.20;99.90;;;;;;5072550;27;20052;-74
2022/09/06 01:51:03;;;;;;;4.68;3.63;;;17.20;99.90;;;;;;5070886;28;20024;-73
2022/09/06 01:53:47;;;;;;;3.25;2.92;;;17.20;99.90;;;;;;5069527;28;20048;-86
2022/09/06 01:56:15;;;;;;;4.40;3.72;;;17.20;99.90;;;;;;5071758;28;20025;-83
2022/09/06 01:59:03;;;;;;;3.53;3.22;;;17.20;99.90;;;;;;5071399;28;20427;-73
2022/09/06 02:01:56;;;;;;;3.67;3.38;;;17.10;99.90;;;;;;5072142;28;20082;-82
2022/09/06 02:04:38;;;;;;;4.20;3.58;;;17.10;99.90;;;;;;5066292;28;20031;-82
2022/09/06 02:07:22;;;;;;;5.10;3.95;;;17.10;99.90;;;;;;5063026;28;20040;-82
2022/09/06 02:09:54;;;;;;;5.25;3.78;;;17.00;99.90;;;;;;5070404;28;20481;-82
2022/09/06 02:12:22;;;;;;;4.03;3.42;;;17.10;99.90;;;;;;5071743;28;20528;-82
2022/09/06 02:14:59;;;;;;;5.55;3.50;;;17.10;99.90;;;;;;5070411;28;20033;-83
2022/09/06 02:17:30;;;;;;;4.88;3.58;;;17.10;99.90;;;;;;5071507;28;20374;-81
2022/09/06 02:20:19;;;;;;;4.45;3.70;;;17.10;99.90;;;;;;5070036;28;20048;-82
2022/09/06 02:22:47;;;;;;;4.32;3.90;;;17.10;99.90;;;;;;5070586;28;20028;-73
2022/09/06 02:25:22;;;;;;;5.35;3.65;;;17.30;99.90;;;;;;5074809;28;20020;-85
2022/09/06 02:27:48;;;;;;;6.22;3.78;;;17.40;99.90;;;;;;5073935;28;20039;-84
2022/09/06 02:30:14;;;;;;;9.77;3.95;;;17.50;99.90;;;;;;5075319;28;20029;-85
2022/09/06 02:32:49;;;;;;;7.85;4.30;;;17.60;99.90;;;;;;5075153;28;20040;-85
2022/09/06 02:35:15;;;;;;;4.20;3.80;;;17.70;99.90;;;;;;5075209;28;20508;-85
2022/09/06 02:37:42;;;;;;;5.50;4.10;;;17.80;99.90;;;;;;5075419;28;20044;-84
2022/09/06 02:40:09;;;;;;;5.88;4.10;;;17.90;99.90;;;;;;5074654;28;20035;-82
2022/09/06 02:42:34;;;;;;;5.20;3.67;;;17.90;99.90;;;;;;5075234;28;20112;-81
2022/09/06 02:45:00;;;;;;;3.85;3.45;;;18.00;99.90;;;;;;5074306;28;20056;-83
2022/09/06 02:47:26;;;;;;;4.55;3.50;;;18.10;99.90;;;;;;5057622;28;20482;-83
2022/09/06 02:49:51;;;;;;;4.82;4.00;;;18.10;99.90;;;;;;5073938;28;20035;-84
2022/09/06 02:52:17;;;;;;;4.95;3.50;;;18.20;99.90;;;;;;5074593;28;20119;-81
2022/09/06 02:54:43;;;;;;;8.55;4.22;;;18.20;99.90;;;;;;5074535;28;20038;-83
2022/09/06 02:57:09;;;;;;;6.60;3.63;;;18.20;99.90;;;;;;5073678;28;20025;-84
2022/09/06 02:59:34;;;;;;;4.95;3.45;;;18.10;99.90;;;;;;5073977;28;20059;-84
2022/09/06 03:02:00;;;;;;;8.32;5.13;;;18.00;99.90;;;;;;5073447;28;20033;-86
2022/09/06 03:04:26;;;;;;;14.25;6.75;;;17.90;99.90;;;;;;5076051;28;20032;-86
2022/09/06 03:06:51;;;;;;;11.88;6.72;;;17.70;99.90;;;;;;5072712;28;20033;-88
2022/09/06 03:09:17;;;;;;;12.27;6.30;;;17.60;99.90;;;;;;5073430;28;20033;-88
2022/09/06 03:11:43;;;;;;;12.27;7.10;;;17.30;99.90;;;;;;5073775;28;20401;-88
2022/09/06 03:14:08;;;;;;;17.20;7.35;;;17.10;99.90;;;;;;5072945;28;20659;-88
2022/09/06 03:16:35;;;;;;;11.38;7.30;;;16.90;99.90;;;;;;5074620;28;20082;-88
2022/09/06 03:19:01;;;;;;;10.13;7.15;;;16.80;99.90;;;;;;5073514;28;20054;-86
2022/09/06 03:21:27;;;;;;;11.10;7.55;;;16.80;99.90;;;;;;5073873;28;20028;-88
2022/09/06 03:23:53;;;;;;;9.32;7.40;;;16.70;99.90;;;;;;5073649;28;20354;-86
2022/09/06 03:26:19;;;;;;;11.00;8.32;;;16.70;99.90;;;;;;5073800;28;20545;-89
2022/09/06 03:28:44;;;;;;;15.38;9.65;;;16.60;99.90;;;;;;5074315;28;20048;-87
2022/09/06 03:31:10;;;;;;;11.73;8.23;;;16.60;99.90;;;;;;5072846;28;20047;-86
2022/09/06 03:33:36;;;;;;;13.77;8.75;;;16.60;99.90;;;;;;5073341;28;20045;-86
2022/09/06 03:36:02;;;;;;;11.07;8.68;;;16.60;99.90;;;;;;5072486;28;20025;-84
2022/09/06 03:38:28;;;;;;;11.68;8.90;;;16.60;99.90;;;;;;5074046;28;20029;-85
2022/09/06 03:40:54;;;;;;;11.82;9.02;;;16.50;99.90;;;;;;5072659;28;20029;-84
2022/09/06 03:43:22;;;;;;;15.68;9.45;;;16.50;99.90;;;;;;5073524;28;20028;-85
2022/09/06 03:45:50;;;;;;;16.40;9.63;;;16.50;99.90;;;;;;5072981;28;20036;-74
2022/09/06 03:48:18;;;;;;;11.18;8.65;;;16.50;99.90;;;;;;5072914;28;20044;-84
2022/09/06 03:50:45;;;;;;;13.30;8.75;;;16.50;99.90;;;;;;5073200;28;20025;-88
2022/09/06 03:53:11;;;;;;;12.13;9.00;;;16.50;99.90;;;;;;5071694;28;20032;-80
2022/09/06 03:55:37;;;;;;;9.85;8.75;;;16.40;99.90;;;;;;5073050;28;20025;-78
2022/09/06 03:58:03;;;;;;;11.50;9.10;;;16.40;99.90;;;;;;5072236;28;20016;-77
2022/09/06 04:00:29;;;;;;;10.40;8.75;;;16.40;99.90;;;;;;5072674;28;20481;-78
2022/09/06 04:02:55;;;;;;;11.68;8.95;;;16.30;99.90;;;;;;5071939;28;20032;-78
2022/09/06 04:05:20;;;;;;;9.73;8.70;;;16.30;99.90;;;;;;5072529;28;20020;-78
2022/09/06 04:07:46;;;;;;;13.85;10.60;;;16.30;99.90;;;;;;5073214;28;20037;-78
2022/09/06 04:10:11;;;;;;;12.35;9.63;;;16.30;99.90;;;;;;5072436;28;20052;-78
2022/09/06 04:12:40;;;;;;;10.18;9.13;;;;;;;;;;5072847;28;20045;-78
2022/09/06 04:15:09;;;;;;;11.30;9.30;;;;;;;;;;5071518;28;20359;-82
2022/09/06 04:17:38;;;;;;;11.38;9.23;;;;;;;;;;5072248;28;20021;-83
2022/09/06 04:20:09;;;;;;;12.02;9.45;;;;;;;;;;5071625;28;20070;-83
2022/09/06 04:22:37;;;;;;;;;;;;;;;;;;5072642;28;20111;-84
2022/09/06 04:25:05;;;;;;;12.70;9.18;;;;;;;;;;5071481;28;19955;-84
2022/09/06 04:27:32;;;;;;;13.23;10.02;;;;;;;;;;5072306;28;20028;-83
2022/09/06 04:29:59;;;;;;;11.18;9.23;;;;;;;;;;5063911;28;20028;-84
2022/09/06 04:32:27;;;;;;;10.68;9.48;;;;;;;;;;5072035;28;20033;-85
2022/09/06 04:34:54;;;;;;;13.75;8.68;;;;;;;;;;5071878;28;20035;-73
2022/09/06 04:37:23;;;;;;;10.48;8.43;;;;;;;;;;5072473;28;20025;-85
2022/09/06 04:39:50;;;;;;;9.48;8.63;;;;;;;;;;5072361;28;20033;-86
2022/09/06 04:42:18;;;;;;;11.52;9.73;;;;;;;;;;5071383;28;20074;-85
2022/09/06 04:44:47;;;;;;;9.57;8.63;;;;;;;;;;5072562;28;20017;-84
2022/09/06 04:47:18;;;;;;;9.93;8.77;;;;;;;;;;5071063;28;20580;-88
2022/09/06 04:49:43;;;;;;;;;;;;;;;;;;5065014;28;20031;-85
2022/09/06 04:52:14;;;;;;;11.60;9.48;;;;;;;;;;5071489;28;19908;-86
2022/09/06 04:54:41;;;;;;;10.00;8.88;;;;;;;;;;5071669;28;20111;-82
2022/09/06 04:57:09;;;;;;;10.73;9.65;;;;;;;;;;5071225;28;20051;-85
2022/09/06 04:59:38;;;;;;;13.52;10.95;;;;;;;;;;5073387;28;20059;-85
2022/09/06 05:02:08;;;;;;;13.27;10.57;;;;;;;;;;5071414;28;20028;-85
2022/09/06 05:04:37;;;;;;;12.27;10.88;;;;;;;;;;5072267;28;20024;-85
2022/09/06 05:07:07;;;;;;;11.18;9.20;;;;;;;;;;5071228;28;20029;-86
2022/09/06 05:09:36;;;;;;;;;;;;;;;;;;5054578;28;20368;-85
2022/09/06 05:12:06;;;;;;;10.52;8.10;;;;;;;;;;5072207;28;19911;-85
2022/09/06 05:14:35;;;;;;;13.77;8.63;;;;;;;;;;5073100;28;20124;-85
2022/09/06 05:17:05;;;;;;;9.27;8.27;;;;;;;;;;5072740;28;20043;-87
2022/09/06 05:19:34;;;;;;;12.27;9.00;;;;;;;;;;5073897;28;20029;-86
2022/09/06 05:22:03;;;;;;;10.73;8.13;;;;;;;;;;5073587;28;20025;-85
2022/09/06 05:24:32;;;;;;;12.23;9.10;;;;;;;;;;5074528;28;20028;-81
2022/09/06 05:27:03;;;;;;;10.98;9.20;;;;;;;;;;5070749;28;20028;-79
2022/09/06 05:29:32;;;;;;;11.93;9.52;;;;;;;;;;5072293;28;20385;-77
2022/09/06 05:32:02;;;;;;;9.57;8.55;;;;;;;;;;5071236;28;20523;-79
2022/09/06 05:34:31;;;;;;;12.07;9.13;;;;;;;;;;5072246;28;20048;-84
2022/09/06 05:37:00;;;;;;;10.77;8.80;;;;;;;;;;5069835;28;20029;-72
2022/09/06 05:39:29;;;;;;;10.98;8.98;;;;;;;;;;5073324;28;20032;-82
2022/09/06 05:41:59;;;;;;;9.63;8.63;;;;;;;;;;5079999;28;20017;-73
2022/09/06 05:44:28;;;;;;;14.93;9.85;;;;;;;;;;5080257;28;20408;-83
2022/09/06 05:46:56;;;;;;;12.60;9.55;;;;;;;;;;5066691;28;20025;-86
2022/09/06 05:49:25;;;;;;;10.43;8.85;;;;;;;;;;5077903;28;20032;-88
2022/09/06 05:51:52;;;;;;;10.40;8.13;;;;;;;;;;5084346;28;20086;-89
2022/09/06 05:54:20;;;;;;;10.55;8.07;;;;;;;;;;5090564;28;20036;-85
2022/09/06 05:56:47;;;;;;;12.05;8.30;;;;;;;;;;5079614;28;20020;-88
2022/09/06 05:59:14;;;;;;;10.15;7.78;;;;;;;;;;5069869;28;20466;-87
2022/09/06 06:01:51;;;;;;;9.18;6.93;;;;;;;;;;5076003;28;20025;-83
2022/09/06 06:04:18;;;;;;;9.93;7.30;;;;;;;;;;5055997;28;20035;-88
2022/09/06 06:06:47;;;;;;;11.73;8.55;;;;;;;;;;5075116;28;20073;-84
2022/09/06 06:09:14;;;;;;;9.93;7.57;;;;;;;;;;5066306;28;20043;-81
2022/09/06 06:11:42;;;;;;;10.18;7.43;;;;;;;;;;5057069;28;20461;-83
2022/09/06 06:14:09;;;;;;;9.38;7.13;;;;;;;;;;5074079;28;20115;-84
2022/09/06 06:16:36;;;;;;;11.35;7.20;;;;;;;;;;5075202;28;20025;-83
2022/09/06 06:19:03;;;;;;;7.05;6.35;;;;;;;;;;5056263;28;20044;-83
2022/09/06 06:21:31;;;;;;;6.65;5.97;;;;;;;;;;5075217;28;20082;-83
2022/09/06 06:23:58;;;;;;;7.43;6.50;;;17.40;99.90;;;;;;5074670;28;20359;-77
2022/09/06 06:26:26;;;;;;;8.90;6.22;;;17.50;99.90;;;;;;5074356;28;20024;-81
2022/09/06 06:28:52;;;;;;;7.80;6.43;;;17.50;99.90;;;;;;5072153;28;20051;-80
2022/09/06 06:31:20;;;;;;;6.38;5.78;;;17.60;99.90;;;;;;5079255;28;20094;-81
2022/09/06 06:33:47;;;;;;;6.43;5.70;;;17.60;99.90;;;;;;5066041;28;20032;-81
2022/09/06 06:36:12;;;;;;;7.22;6.28;;;17.60;99.90;;;;;;5073192;28;20525;-81
2022/09/06 06:38:39;;;;;;;8.20;6.80;;;17.70;99.90;;;;;;5073692;28;20107;-77
2022/09/06 06:41:06;;;;;;;7.38;6.60;;;17.80;99.90;;;;;;5071814;28;20067;-81
2022/09/06 06:43:36;;;;;;;7.75;6.72;;;17.90;99.90;;;;;;5073870;28;20112;-80
2022/09/06 06:46:14;;;;;;;7.80;6.60;;;17.90;99.90;;;;;;5073820;28;20035;-80
2022/09/06 06:48:48;;;;;;;7.53;5.75;;;18.00;99.90;;;;;;5076333;27;20048;-81
2022/09/06 06:51:17;;;;;;;9.05;6.95;;;18.10;99.90;;;;;;5075121;28;20032;-81
2022/09/06 06:53:46;;;;;;;8.77;7.13;;;18.30;99.90;;;;;;5077032;28;20036;-81
2022/09/06 06:56:16;;;;;;;7.88;5.55;;;18.40;99.90;;;;;;5075854;28;20075;-80
2022/09/06 06:58:42;;;;;;;11.52;7.28;;;18.60;99.90;;;;;;5076850;28;20055;-80
2022/09/06 07:01:08;;;;;;;8.07;5.95;;;18.70;99.90;;;;;;5076060;28;20032;-80
2022/09/06 07:03:35;;;;;;;7.05;4.53;;;18.80;99.90;;;;;;5076186;28;20029;-80
2022/09/06 07:06:01;;;;;;;7.70;4.85;;;18.90;99.90;;;;;;5075566;28;20020;-72
2022/09/06 07:08:27;;;;;;;8.90;4.57;;;19.10;99.90;;;;;;5075474;28;20035;-82
2022/09/06 07:10:53;;;;;;;8.35;4.65;;;19.30;99.90;;;;;;5075536;28;20373;-79
2022/09/06 07:13:18;;;;;;;10.75;5.07;;;19.50;99.90;;;;;;5076726;28;20469;-79
2022/09/06 07:15:44;;;;;;;8.27;5.22;;;19.60;99.90;;;;;;5080062;28;20032;-78
2022/09/06 07:18:09;;;;;;;11.88;5.13;;;19.70;99.90;;;;;;5080107;28;20058;-79
2022/09/06 07:20:35;;;;;;;6.03;4.60;;;19.80;99.90;;;;;;5079190;28;20035;-80
2022/09/06 07:23:04;;;;;;;8.23;4.95;;;19.80;99.90;;;;;;5078442;28;20028;-72
2022/09/06 07:25:30;;;;;;;9.55;4.97;;;19.90;99.90;;;;;;5081575;28;20428;-81
2022/09/06 07:28:00;;;;;;;5.85;4.53;;;19.90;99.90;;;;;;5077702;28;20075;-80
2022/09/06 07:30:29;;;;;;;12.00;4.40;;;20.00;99.90;;;;;;5074314;28;20111;-79
2022/09/06 07:32:54;;;;;;;8.93;4.80;;;20.00;99.90;;;;;;5073818;28;20112;-78
2022/09/06 07:35:20;;;;;;;5.35;4.20;;;20.00;99.90;;;;;;5072740;28;20115;-79
2022/09/06 07:37:57;;;;;;;8.35;4.03;;;20.00;99.90;;;;;;5073519;28;20089;-80
2022/09/06 07:40:24;;;;;;;6.97;3.97;;;19.90;99.90;;;;;;5073073;28;20082;-78
2022/09/06 07:42:50;;;;;;;8.13;4.25;;;19.90;99.90;;;;;;5073505;28;20032;-78
2022/09/06 07:45:15;;;;;;;5.25;4.00;;;20.00;99.90;;;;;;5072840;28;20109;-77
2022/09/06 07:47:41;;;;;;;9.32;4.45;;;20.10;99.90;;;;;;5073904;28;20060;-77
2022/09/06 07:50:08;;;;;;;6.90;3.58;;;20.20;99.90;;;;;;5072348;28;20381;-78
2022/09/06 07:52:33;;;;;;;4.38;3.95;;;20.20;99.90;;;;;;5073394;28;20029;-79
2022/09/06 07:54:59;;;;;;;6.40;3.88;;;20.40;99.90;;;;;;5073384;28;20123;-79
2022/09/06 07:57:24;;;;;;;4.63;3.72;;;20.50;99.90;;;;;;5072164;28;20036;-80
2022/09/06 07:59:50;;;;;;;6.00;3.95;;;20.70;99.90;;;;;;5073241;28;20024;-80
2022/09/06 08:02:16;;;;;;;10.55;4.03;;;20.80;99.90;;;;;;5072652;28;20062;-80
2022/09/06 08:04:42;;;;;;;5.15;3.17;;;21.00;99.90;;;;;;5073669;28;20028;-79
2022/09/06 08:07:09;;;;;;;9.63;3.58;;;21.10;99.90;;;;;;5072733;28;20032;-79
2022/09/06 08:09:35;;;;;;;10.05;4.10;;;21.30;99.90;;;;;;5073210;28;20147;-80
2022/09/06 08:12:05;;;;;;;4.93;3.78;;;21.50;99.90;;;;;;5073163;28;20027;-80
2022/09/06 08:14:34;;;;;;;3.67;3.17;;;21.60;99.90;;;;;;5072707;28;20041;-81
2022/09/06 08:17:01;;;;;;;4.77;3.77;;;21.70;99.90;;;;;;5072955;28;20028;-80
2022/09/06 08:19:27;;;;;;;5.47;3.30;;;21.80;99.90;;;;;;5071988;28;20029;-81
2022/09/06 08:21:54;;;;;;;7.30;3.65;;;21.90;99.90;;;;;;5072245;28;20062;-81
2022/09/06 08:24:21;;;;;;;7.50;3.53;;;22.00;99.90;;;;;;5072035;28;20048;-81
2022/09/06 08:26:47;;;;;;;8.40;3.55;;;22.00;99.90;;;;;;5072956;28;20449;-81
2022/09/06 08:29:13;;;;;;;5.50;3.50;;;22.20;99.90;;;;;;5071895;28;20020;-80
2022/09/06 08:31:41;;;;;;;9.05;3.05;;;22.40;99.90;;;;;;5072519;28;20024;-81
2022/09/06 08:34:07;;;;;;;5.88;3.38;;;22.50;99.90;;;;;;5071719;28;20037;-73
2022/09/06 08:36:33;;;;;;;8.05;3.63;;;22.60;99.90;;;;;;5072696;28;20141;-82
2022/09/06 08:39:01;;;;;;;11.65;4.10;;;22.70;99.90;;;;;;5072608;28;20089;-82
2022/09/06 08:41:30;;;;;;;5.00;3.10;;;22.80;99.90;;;;;;5071993;28;20718;-82
2022/09/06 08:44:03;;;;;;;4.60;3.13;;;23.00;99.90;;;;;;5072578;28;20377;-81
2022/09/06 08:47:03;;;;;;;6.00;3.35;;;23.10;99.90;;;;;;5072052;28;20374;-83
2022/09/06 08:49:36;;;;;;;10.25;3.65;;;23.20;99.90;;;;;;5054700;28;20036;-83
2022/09/06 08:52:14;;;;;;;7.97;3.67;;;23.40;99.90;;;;;;5072725;28;20032;-83
2022/09/06 08:54:56;;;;;;;4.63;3.08;;;23.50;99.90;;;;;;5072670;28;20466;-85
2022/09/06 08:57:30;;;;;;;5.78;3.25;;;23.60;99.90;;;;;;5072223;28;20025;-85
2022/09/06 09:00:00;;;;;;;6.32;3.05;;;23.80;99.90;;;;;;5072742;28;20028;-85
2022/09/06 09:02:33;;;;;;;9.73;3.22;;;23.90;99.90;;;;;;5071933;28;20111;-84
2022/09/06 09:05:05;;;;;;;5.22;3.10;;;24.10;99.90;;;;;;5072190;28;20504;-84
2022/09/06 09:07:44;;;;;;;6.93;3.08;;;24.30;99.90;;;;;;5072118;28;20096;-84
2022/09/06 09:10:22;;;;;;;7.07;2.97;;;24.50;99.90;;;;;;5073160;28;20036;-83
2022/09/06 09:12:49;;;;;;;6.82;3.15;;;24.70;99.90;;;;;;5075430;28;20290;-83
2022/09/06 09:15:17;;;;;;;4.97;3.17;;;24.90;99.90;;;;;;5071478;28;20040;-81
2022/09/06 09:17:45;;;;;;;7.10;2.90;;;25.00;99.90;;;;;;5072341;28;20488;-83
2022/09/06 09:20:11;;;;;;;8.05;3.38;;;25.10;99.90;;;;;;5071506;28;20032;-81
2022/09/06 09:22:38;;;;;;;5.20;2.63;;;25.30;99.90;;;;;;5072122;28;20020;-83
2022/09/06 09:25:07;;;;;;;10.05;3.38;;;25.60;99.90;;;;;;5072182;28;20097;-84
2022/09/06 09:27:33;;;;;;;5.13;2.78;;;25.90;99.90;;;;;;5072055;28;20021;-83
2022/09/06 09:30:01;;;;;;;6.45;3.45;;;26.20;99.90;;;;;;5071914;28;20031;-82
2022/09/06 09:32:38;;;;;;;9.82;3.00;;;26.60;99.90;;;;;;5071080;28;20025;-81
2022/09/06 09:35:31;;;;;;;12.20;3.65;;;26.70;99.90;;;;;;5075631;28;20143;-81
2022/09/06 09:38:05;;;;;;;5.45;2.97;;;26.80;99.90;;;;;;5076203;28;20039;-82
2022/09/06 09:40:48;;;;;;;8.00;2.80;;;26.80;99.90;;;;;;5075375;28;20021;-81
2022/09/06 09:43:24;;;;;;;5.63;3.03;;;26.80;99.90;;;;;;5075408;28;20104;-82
2022/09/06 09:46:13;;;;;;;5.00;2.92;;;26.80;99.90;;;;;;5077586;28;20028;-81
2022/09/06 09:48:43;;;;;;;9.50;3.22;;;26.90;99.90;;;;;;5078540;28;20044;-83
2022/09/06 09:51:24;;;;;;;10.38;3.30;;;27.10;99.90;;;;;;5076761;28;20036;-73
2022/09/06 09:53:54;;;;;;;12.68;3.75;;;27.20;99.90;;;;;;5077120;28;20044;-83
2022/09/06 09:56:27;;;;;;;;;;;27.40;99.80;;;;;;5077015;28;20028;-81
2022/09/06 09:58:56;;;;;;;11.68;3.75;;;27.50;99.30;;;;;;5077047;28;19991;-81
2022/09/06 10:01:29;;;;;;;7.40;3.03;;;27.60;99.40;;;;;;5076334;28;20071;-82
2022/09/06 10:04:07;;;;;;;11.25;3.75;;;27.70;98.80;;;;;;5076170;28;20056;-79
2022/09/06 10:06:33;;;;;;;7.15;3.13;;;27.80;98.60;;;;;;5074599;28;20411;-79
2022/09/06 10:09:13;;;;;;;7.18;2.92;;;28.00;98.30;;;;;;5075385;28;20029;-80
2022/09/06 10:12:00;;;;;;;7.55;3.50;;;28.20;97.70;;;;;;5077020;28;20032;-84
2022/09/06 10:14:47;;;;;;;10.15;3.45;;;28.30;97.50;;;;;;5082512;28;20049;-82
2022/09/06 10:17:29;;;;;;;6.50;3.10;;;28.50;97.00;;;;;;5094893;28;20132;-75
2022/09/06 10:19:55;;;;;;;5.00;3.20;;;28.70;97.10;;;;;;5096020;28;20017;-83
2022/09/06 10:22:29;;;;;;;10.48;3.47;;;28.80;96.20;;;;;;5095730;28;20034;-82
2022/09/06 10:25:17;;;;;;;5.97;3.00;;;28.90;96.20;;;;;;5097445;28;20028;-83
2022/09/06 10:28:10;;;;;;;6.55;2.80;;;29.00;95.80;;;;;;5095890;28;20029;-83
2022/09/06 10:30:46;;;;;;;6.82;2.35;;;29.20;96.20;;;;;;5098508;28;20016;-77
2022/09/06 10:33:39;;;;;;;6.80;2.80;;;29.60;95.20;;;;;;5099051;28;20397;-70
2022/09/06 10:36:06;;;;;;;4.28;1.90;;;30.00;93.10;;;;;;5090536;28;20043;-82
2022/09/06 10:38:57;;;;;;;7.70;2.35;;;30.00;91.10;;;;;;5085035;28;20035;-82
2022/09/06 10:41:42;;;;;;;5.95;2.63;;;30.10;89.70;;;;;;5078262;28;20082;-83
2022/09/06 10:44:42;;;;;;;5.47;1.80;;;30.00;87.00;;;;;;5084972;28;20047;-83
2022/09/06 10:47:13;;;;;;;8.23;2.58;;;29.90;85.90;;;;;;5078501;28;20024;-83
2022/09/06 10:49:47;;;;;;;5.35;2.25;;;29.80;87.30;;;;;;5075094;28;20068;-84
2022/09/06 10:52:24;;;;;;;5.70;2.20;;;29.70;88.40;;;;;;5075799;28;20029;-74
2022/09/06 10:54:51;;;;;;;6.85;2.10;;;29.70;88.60;;;;;;5075269;28;20087;-84
2022/09/06 10:57:26;;;;;;;8.68;2.85;;;29.80;89.70;;;;;;5074240;28;20039;-83
2022/09/06 11:00:02;;;;;;;6.85;2.97;;;29.80;89.50;;;;;;5075331;28;20025;-83
2022/09/06 11:02:53;;;;;;;6.72;2.83;;;29.70;89.70;;;;;;5073902;28;20020;-83
2022/09/06 11:05:24;;;;;;;8.73;2.33;;;29.70;90.00;;;;;;5073972;28;20028;-84
2022/09/06 11:07:58;;;;;;;8.63;2.95;;;29.70;90.00;;;;;;5075335;28;20135;-84
2022/09/06 11:10:29;;;;;;;4.20;3.28;;;29.80;89.90;;;;;;5074141;28;20021;-84
2022/09/06 11:13:18;;;;;;;12.15;3.72;;;30.00;88.90;;;;;;5075516;28;20084;-83
2022/09/06 11:16:07;;;;;;;4.85;3.13;;;29.90;88.80;;;;;;5075476;28;20082;-82
2022/09/06 11:18:50;;;;;;;5.78;3.28;;;29.90;89.30;;;;;;5074310;28;20056;-83
2022/09/06 11:21:28;;;;;;;8.00;2.88;;;29.80;89.10;;;;;;5074395;28;20036;-74
2022/09/06 11:24:35;;;;;;;7.53;2.75;;;29.90;89.50;;;;;;5075431;28;20100;-80
2022/09/06 11:27:25;;;;;;;10.00;3.00;;;30.10;89.00;;;;;;5074891;28;20028;-80
2022/09/06 11:29:55;;;;;;;7.50;3.33;;;30.30;88.40;;;;;;5074607;28;20081;-83
2022/09/06 11:32:37;;;;;;;7.93;3.15;;;30.50;89.70;;;;;;5073582;28;20052;-82
2022/09/06 11:35:08;;;;;;;9.70;3.38;;;30.70;89.40;;;;;;5074948;28;20557;-82
2022/09/06 11:37:39;;;;;;;12.60;3.97;;;30.70;90.00;;;;;;5073611;28;20284;-82
2022/09/06 11:40:07;;;;;;;9.20;3.38;;;30.90;89.80;;;;;;5074529;28;20025;-82
2022/09/06 11:42:43;;;;;;;10.85;3.70;;;31.10;89.10;;;;;;5073682;28;20035;-82
2022/09/06 11:45:09;;;;;;;11.50;3.28;;;;;;;;;;5075891;28;20153;-82
2022/09/06 11:47:39;;;;;;;10.07;3.30;;;31.30;87.30;;;;;;5077016;28;20044;-82
2022/09/06 11:50:20;;;;;;;9.65;3.50;;;31.50;87.60;;;;;;5077868;28;20103;-81
2022/09/06 11:53:16;;;;;;;11.35;3.42;;;31.70;86.90;;;;;;5078241;28;20020;-81
2022/09/06 11:55:50;;;;;;;7.65;3.10;;;32.00;86.10;;;;;;5076528;28;20041;-83
2022/09/06 11:58:16;;;;;;;9.80;3.70;;;32.20;84.20;;;;;;5077285;28;20112;-70
2022/09/06 12:00:42;;;;;;;6.68;3.10;;;32.30;84.10;;;;;;5075120;28;20426;-80
2022/09/06 12:03:29;;;;;;;13.63;3.75;;;32.40;83.60;;;;;;5058281;28;20029;-81
2022/09/06 12:06:19;;;;;;;8.18;2.97;;;32.50;82.80;;;;;;5077209;28;20467;-82
2022/09/06 12:08:51;;;;;;;6.55;3.40;;;32.80;82.10;;;;;;5073341;28;20059;-82
2022/09/06 12:11:29;;;;;;;8.57;3.60;;;32.70;82.20;;;;;;5072792;28;20078;-72
2022/09/06 12:14:02;;;;;;;8.27;3.42;;;32.70;81.80;;;;;;5072765;28;20032;-80
2022/09/06 12:16:56;;;;;;;11.48;3.88;;;32.70;81.90;;;;;;5072401;28;20024;-81
2022/09/06 12:19:42;;;;;;;9.93;3.55;;;32.90;81.40;;;;;;5072015;28;20096;-80
2022/09/06 12:22:37;;;;;;;8.85;2.95;;;;;;;;;;5073054;28;20032;-80
2022/09/06 12:25:22;;;;;;;7.35;3.30;;;;;;;;;;5072839;28;20033;-81
2022/09/06 12:27:53;;;;;;;6.90;2.97;;;;;;;;;;5072558;28;20029;-81
2022/09/06 12:30:31;;;;;;;5.88;2.78;;;;;;;;;;5072213;28;20468;-73
2022/09/06 12:32:57;;;;;;;9.50;3.30;;;;;;;;;;5072747;28;20400;-82
2022/09/06 12:35:25;;;;;;;9.10;3.13;;;;;;;;;;5071800;28;20043;-80
2022/09/06 12:37:55;;;;;;;8.00;3.78;;;;;;;;;;5072257;28;20473;-81
2022/09/06 12:40:22;;;;;;;7.97;2.97;;;;;;;;;;5071729;28;20021;-74
2022/09/06 12:42:49;;;;;;;7.07;3.25;;;;;;;;;;5072401;28;20052;-80
2022/09/06 12:45:15;;;;;;;9.77;2.90;;;;;;;;;;5072434;28;20036;-81
2022/09/06 12:47:41;;;;;;;8.60;3.20;;;;;;;;;;5072469;27;20214;-80
2022/09/06 12:50:17;;;;;;;9.05;3.40;;;;;;;;;;5072430;28;20454;-81
2022/09/06 12:53:03;;;;;;;8.13;3.38;;;;;;;;;;5071495;28;20074;-75
2022/09/06 12:55:33;;;;;;;8.45;3.13;;;;;;;;;;5071382;28;20041;-79
2022/09/06 12:58:01;;;;;;;9.52;3.72;;;;;;;;;;5072210;28;20017;-79
2022/09/06 13:00:31;;;;;;;10.13;3.83;;;;;;;;;;5071415;28;20017;-80
2022/09/06 13:03:07;;;;;;;9.05;3.42;;;;;;;;;;5072288;28;20074;-81
2022/09/06 13:05:33;;;;;;;10.15;3.95;;;;;;;;;;5071323;28;20031;-81
2022/09/06 13:08:01;;;;;;;9.95;4.00;;;;;;;;;;5072047;28;20078;-81
2022/09/06 13:10:27;;;;;;;7.57;3.63;;;27.20;95.00;;;;;;5071353;28;20048;-80
2022/09/06 13:12:57;;;;;;;5.57;3.15;;;27.00;95.70;;;;;;5072205;28;20099;-81
2022/09/06 13:15:29;;;;;;;14.27;3.67;;;26.70;96.60;;;;;;5071780;28;20039;-73
2022/09/06 13:18:34;;;;;;;9.63;3.40;;;26.50;96.90;;;;;;5073189;28;20085;-81
2022/09/06 13:21:10;;;;;;;7.00;3.20;;;26.30;97.50;;;;;;5072679;28;20044;-81
2022/09/06 13:23:42;;;;;;;6.70;3.20;;;26.10;98.40;;;;;;5072277;28;20029;-80
2022/09/06 13:26:08;;;;;;;9.20;3.75;;;26.10;99.20;;;;;;5072653;28;20067;-80
2022/09/06 13:28:34;;;;;;;6.50;3.25;;;26.00;99.30;;;;;;5071676;28;20060;-79
2022/09/06 13:31:17;;;;;;;6.88;3.47;;;26.00;98.80;;;;;;5072747;28;20032;-80